Time;durP1;ratioP1;P1;durP2;ratioP2;P2;SDS_P1;SDS_P2;PMS_P1;PMS_P2;Temp;Humidity;BMP_temperature;BMP_pressure;BME280_temperature;BME280_humidity;BME280_pressure;Samples;Min_cycle;Max_cycle;Signal;HPM_P1;HPM_P2
2021/08/24 00:00:43;;;;;;;;;;;20.20;66.80;;;;;;494399;240;1074;-46
2021/08/24 00:02:44;;;;;;;;;;;20.30;66.60;;;;;;494029;240;1155;-46
2021/08/24 00:04:45;;;;;;;;;;;20.30;66.40;;;;;;494237;240;1055;-46
2021/08/24 00:06:47;;;;;;;;;;;20.40;66.30;;;;;;494485;239;1207;-46
2021/08/24 00:08:48;;;;;;;;;;;20.50;66.20;;;;;;494023;240;1281;-46
2021/08/24 00:10:49;;;;;;;;;;;20.50;65.70;;;;;;494473;240;1110;-46
2021/08/24 00:12:51;;;;;;;;;;;20.70;65.60;;;;;;493996;240;1079;-46
2021/08/24 00:14:52;;;;;;;;;;;20.70;65.30;;;;;;494053;240;2190;-46
2021/08/24 00:16:53;;;;;;;;;;;20.70;65.40;;;;;;494256;240;1097;-46
2021/08/24 00:18:55;;;;;;;;;;;20.70;65.30;;;;;;494280;240;1081;-46
2021/08/24 00:20:56;;;;;;;;;;;20.70;65.30;;;;;;494409;240;1064;-46
2021/08/24 00:22:57;;;;;;;;;;;20.70;65.40;;;;;;494117;240;1237;-46
2021/08/24 00:24:59;;;;;;;;;;;20.70;65.30;;;;;;494570;240;1071;-46
2021/08/24 00:27:00;;;;;;;;;;;20.80;65.10;;;;;;494053;240;1530;-47
2021/08/24 00:29:01;;;;;;;;;;;20.90;64.90;;;;;;494444;240;1179;-47
2021/08/24 00:31:02;;;;;;;;;;;20.90;64.80;;;;;;494276;240;1229;-47
2021/08/24 00:33:04;;;;;;;;;;;20.90;64.70;;;;;;494506;240;1557;-46
2021/08/24 00:35:05;;;;;;;;;;;20.90;64.60;;;;;;494589;240;2138;-46
2021/08/24 00:37:06;;;;;;;;;;;21.10;64.30;;;;;;494006;240;1194;-47
2021/08/24 00:39:08;;;;;;;;;;;21.00;64.40;;;;;;494340;240;1280;-46
2021/08/24 00:41:09;;;;;;;;;;;21.00;64.60;;;;;;493976;240;1504;-46
2021/08/24 00:43:10;;;;;;;;;;;20.90;64.60;;;;;;494452;240;1099;-46
2021/08/24 00:45:12;;;;;;;;;;;21.00;64.60;;;;;;494550;240;1032;-46
2021/08/24 00:47:13;;;;;;;;;;;21.00;64.60;;;;;;494172;240;1226;-46
2021/08/24 00:49:14;;;;;;;;;;;21.00;64.60;;;;;;494099;240;1162;-46
2021/08/24 00:51:16;;;;;;;;;;;21.00;64.50;;;;;;494302;240;1455;-46
2021/08/24 00:53:17;;;;;;;;;;;21.00;64.60;;;;;;494089;240;1155;-47
2021/08/24 00:55:18;;;;;;;;;;;21.00;64.60;;;;;;494078;240;2182;-46
2021/08/24 00:57:20;;;;;;;;;;;21.00;64.50;;;;;;494351;240;1254;-47
2021/08/24 00:59:21;;;;;;;;;;;21.10;64.50;;;;;;494537;240;1095;-47
2021/08/24 01:01:22;;;;;;;;;;;21.10;64.40;;;;;;494240;240;1139;-46
2021/08/24 01:03:24;;;;;;;;;;;21.10;64.30;;;;;;494044;240;1232;-46
2021/08/24 01:05:25;;;;;;;;;;;21.10;64.30;;;;;;494524;240;1019;-46
2021/08/24 01:07:26;;;;;;;;;;;21.10;64.10;;;;;;494192;240;1339;-46
2021/08/24 01:09:28;;;;;;;;;;;21.20;64.10;;;;;;493821;241;1164;-47
2021/08/24 01:11:29;;;;;;;;;;;21.20;64.00;;;;;;494035;240;1214;-46
2021/08/24 01:13:30;;;;;;;;;;;21.20;64.00;;;;;;493542;240;1239;-46
2021/08/24 01:15:32;;;;;;;;;;;21.20;64.00;;;;;;494070;240;2186;-46
2021/08/24 01:17:33;;;;;;;;;;;21.20;64.10;;;;;;494235;240;1193;-46
2021/08/24 01:19:34;;;;;;;;;;;21.20;64.00;;;;;;494473;240;1063;-47
2021/08/24 01:21:36;;;;;;;;;;;21.20;64.00;;;;;;494345;240;1258;-46
2021/08/24 01:23:37;;;;;;;;;;;21.30;64.10;;;;;;494522;240;1199;-46
2021/08/24 01:25:38;;;;;;;;;;;21.30;64.10;;;;;;494085;240;1274;-46
2021/08/24 01:27:39;;;;;;;;;;;21.20;64.10;;;;;;494449;240;1347;-47
2021/08/24 01:29:41;;;;;;;;;;;21.30;64.00;;;;;;494096;240;1112;-46
2021/08/24 01:31:42;;;;;;;;;;;21.30;64.00;;;;;;494523;240;1282;-47
2021/08/24 01:33:43;;;;;;;;;;;21.30;64.00;;;;;;494138;240;1080;-46
2021/08/24 01:35:45;;;;;;;;;;;21.30;63.90;;;;;;494076;240;2191;-46
2021/08/24 01:37:46;;;;;;;;;;;21.40;63.80;;;;;;494445;240;1167;-46
2021/08/24 01:39:47;;;;;;;;;;;21.40;63.80;;;;;;494308;240;1173;-46
2021/08/24 01:41:49;;;;;;;;;;;21.40;63.80;;;;;;494084;240;1190;-46
2021/08/24 01:43:50;;;;;;;;;;;21.40;63.80;;;;;;494175;240;1189;-46
2021/08/24 01:45:51;;;;;;;;;;;21.40;63.80;;;;;;494025;240;1177;-46
2021/08/24 01:47:53;;;;;;;;;;;21.40;63.80;;;;;;494008;240;1173;-46
2021/08/24 01:49:54;;;;;;;;;;;21.40;63.70;;;;;;494461;240;1099;-46
2021/08/24 01:51:55;;;;;;;;;;;21.40;63.60;;;;;;494164;240;1235;-46
2021/08/24 01:53:57;;;;;;;;;;;21.40;63.70;;;;;;494072;240;1307;-46
2021/08/24 01:55:58;;;;;;;;;;;21.50;63.50;;;;;;494011;240;2167;-46
2021/08/24 01:57:59;;;;;;;;;;;21.50;63.50;;;;;;494377;240;1203;-47
2021/08/24 02:00:01;;;;;;;;;;;21.50;63.60;;;;;;494534;240;1219;-46
2021/08/24 02:02:02;;;;;;;;;;;21.50;63.60;;;;;;494461;240;1155;-46
2021/08/24 02:04:03;;;;;;;;;;;21.50;63.60;;;;;;494579;240;1192;-47
2021/08/24 02:06:05;;;;;;;;;;;21.50;63.50;;;;;;494488;240;1230;-46
2021/08/24 02:08:06;;;;;;;;;;;21.50;63.70;;;;;;494437;240;1586;-46
2021/08/24 02:10:07;;;;;;;;;;;21.50;63.70;;;;;;494336;240;1162;-46
2021/08/24 02:12:09;;;;;;;;;;;21.50;63.60;;;;;;494036;240;1067;-47
2021/08/24 02:14:10;;;;;;;;;;;21.50;63.60;;;;;;494107;240;974;-46
2021/08/24 02:16:11;;;;;;;;;;;21.50;63.60;;;;;;494345;240;2212;-47
2021/08/24 02:18:13;;;;;;;;;;;21.50;63.60;;;;;;494063;240;1339;-47
2021/08/24 02:20:14;;;;;;;;;;;21.60;63.60;;;;;;494542;240;1004;-47
2021/08/24 02:22:15;;;;;;;;;;;21.60;63.60;;;;;;494105;240;1175;-46
2021/08/24 02:24:16;;;;;;;;;;;21.50;64.50;;;;;;494595;240;1019;-46
2021/08/24 02:26:18;;;;;;;;;;;21.50;64.70;;;;;;494037;240;1223;-46
2021/08/24 02:28:19;;;;;;;;;;;21.10;65.90;;;;;;494130;240;1141;-46
2021/08/24 02:30:20;;;;;;;;;;;20.80;67.30;;;;;;494267;240;1127;-46
2021/08/24 02:32:22;;;;;;;;;;;20.50;68.30;;;;;;494148;240;1249;-46
2021/08/24 02:34:23;;;;;;;;;;;20.30;69.00;;;;;;494123;240;1078;-46
2021/08/24 02:36:24;;;;;;;;;;;20.20;69.50;;;;;;494491;240;2148;-46
2021/08/24 02:38:26;;;;;;;;;;;20.10;69.90;;;;;;494530;240;1108;-46
2021/08/24 02:40:27;;;;;;;;;;;20.00;70.00;;;;;;494276;240;1144;-46
2021/08/24 02:42:28;;;;;;;;;;;19.90;70.30;;;;;;494081;240;1406;-47
2021/08/24 02:44:30;;;;;;;;;;;19.80;70.50;;;;;;494100;240;1066;-46
2021/08/24 02:46:31;;;;;;;;;;;19.80;70.70;;;;;;494049;240;1336;-46
2021/08/24 02:48:32;;;;;;;;;;;19.80;70.80;;;;;;494071;240;1074;-46
2021/08/24 02:50:34;;;;;;;;;;;19.70;70.90;;;;;;494554;240;976;-46
2021/08/24 02:52:35;;;;;;;;;;;19.70;70.90;;;;;;494435;240;1260;-46
2021/08/24 02:54:36;;;;;;;;;;;19.70;70.90;;;;;;494601;240;1040;-46
2021/08/24 02:56:38;;;;;;;;;;;19.60;70.90;;;;;;494101;240;2163;-46
2021/08/24 02:58:39;;;;;;;;;;;19.60;71.10;;;;;;494128;240;1082;-46
2021/08/24 03:00:40;;;;;;;;;;;19.60;71.10;;;;;;494247;240;1188;-46
2021/08/24 03:02:42;;;;;;;;;;;19.60;71.10;;;;;;494063;240;1061;-46
2021/08/24 03:04:43;;;;;;;;;;;19.60;71.10;;;;;;494134;240;1059;-46
2021/08/24 03:06:44;;;;;;;;;;;19.50;71.10;;;;;;493980;240;1136;-46
2021/08/24 03:08:46;;;;;;;;;;;19.50;71.20;;;;;;494476;240;1030;-46
2021/08/24 03:10:47;;;;;;;;;;;19.50;71.20;;;;;;494327;240;1162;-46
2021/08/24 03:12:48;;;;;;;;;;;19.40;71.30;;;;;;494479;240;1053;-46
2021/08/24 03:14:49;;;;;;;;;;;19.40;71.30;;;;;;494508;240;1121;-46
2021/08/24 03:16:51;;;;;;;;;;;19.40;71.40;;;;;;494401;240;2187;-46
2021/08/24 03:18:52;;;;;;;;;;;19.40;71.30;;;;;;494535;240;1038;-46
2021/08/24 03:20:53;;;;;;;;;;;19.40;71.20;;;;;;494496;240;1350;-46
2021/08/24 03:22:55;;;;;;;;;;;19.40;71.30;;;;;;493997;240;1299;-46
2021/08/24 03:24:56;;;;;;;;;;;19.40;71.30;;;;;;494049;240;1019;-46
2021/08/24 03:26:57;;;;;;;;;;;19.40;71.40;;;;;;494012;240;1624;-46
2021/08/24 03:28:59;;;;;;;;;;;19.30;71.50;;;;;;494066;240;1081;-46
2021/08/24 03:31:00;;;;;;;;;;;19.30;71.60;;;;;;494322;240;1204;-45
2021/08/24 03:33:01;;;;;;;;;;;19.30;71.50;;;;;;494042;240;1035;-46
2021/08/24 03:35:03;;;;;;;;;;;19.30;71.50;;;;;;494561;240;1074;-46
2021/08/24 03:37:04;;;;;;;;;;;19.30;71.50;;;;;;494114;240;2136;-46
2021/08/24 03:39:05;;;;;;;;;;;19.30;71.50;;;;;;494579;240;1037;-46
2021/08/24 03:41:07;;;;;;;;;;;19.30;71.60;;;;;;494041;240;1167;-46
2021/08/24 03:43:08;;;;;;;;;;;19.30;71.60;;;;;;494449;240;1174;-46
2021/08/24 03:45:09;;;;;;;;;;;19.30;71.60;;;;;;494412;240;983;-46
2021/08/24 03:47:11;;;;;;;;;;;19.30;71.60;;;;;;494331;240;1599;-46
2021/08/24 03:49:12;;;;;;;;;;;19.20;71.50;;;;;;494547;240;1046;-46
2021/08/24 03:51:13;;;;;;;;;;;19.20;71.50;;;;;;494176;240;1039;-45
2021/08/24 03:53:14;;;;;;;;;;;19.20;71.50;;;;;;494242;240;1156;-46
2021/08/24 03:55:16;;;;;;;;;;;19.20;71.60;;;;;;494181;240;1046;-46
2021/08/24 03:57:17;;;;;;;;;;;19.20;71.60;;;;;;494075;240;2199;-46
2021/08/24 03:59:18;;;;;;;;;;;19.20;71.50;;;;;;494536;240;1067;-46
2021/08/24 04:01:20;;;;;;;;;;;19.20;71.60;;;;;;494301;240;1068;-46
2021/08/24 04:03:21;;;;;;;;;;;19.10;71.50;;;;;;494072;240;1316;-46
2021/08/24 04:05:22;;;;;;;;;;;19.10;71.60;;;;;;494084;240;1025;-46
2021/08/24 04:07:24;;;;;;;;;;;19.20;71.70;;;;;;494059;240;1357;-46
2021/08/24 04:09:25;;;;;;;;;;;19.10;71.60;;;;;;494058;240;2308;-46
2021/08/24 04:11:26;;;;;;;;;;;19.10;71.70;;;;;;494134;240;1173;-46
2021/08/24 04:13:28;;;;;;;;;;;19.10;71.70;;;;;;494128;240;1203;-46
2021/08/24 04:15:29;;;;;;;;;;;19.10;71.70;;;;;;494075;240;1251;-46
2021/08/24 04:17:30;;;;;;;;;;;19.10;71.60;;;;;;494015;240;2190;-46
2021/08/24 04:19:32;;;;;;;;;;;19.10;71.70;;;;;;494545;240;1095;-46
2021/08/24 04:21:33;;;;;;;;;;;19.10;71.80;;;;;;494242;240;1470;-46
2021/08/24 04:23:34;;;;;;;;;;;19.00;71.70;;;;;;494448;240;1230;-46
2021/08/24 04:25:36;;;;;;;;;;;19.10;71.70;;;;;;494409;240;1193;-46
2021/08/24 04:27:37;;;;;;;;;;;19.10;71.70;;;;;;494007;240;1587;-46
2021/08/24 04:29:38;;;;;;;;;;;19.10;71.60;;;;;;494425;240;1058;-46
2021/08/24 04:31:40;;;;;;;;;;;19.10;71.60;;;;;;494074;240;1453;-46
2021/08/24 04:33:41;;;;;;;;;;;19.00;71.70;;;;;;494061;240;1244;-46
2021/08/24 04:35:42;;;;;;;;;;;19.00;71.70;;;;;;494008;240;1106;-46
2021/08/24 04:37:44;;;;;;;;;;;19.00;71.60;;;;;;494405;240;2206;-46
2021/08/24 04:39:45;;;;;;;;;;;19.00;71.70;;;;;;494472;240;1073;-46
2021/08/24 04:41:47;;;;;;;;;;;19.00;71.60;;;;;;494059;237;1380;-46
2021/08/24 04:43:48;;;;;;;;;;;19.00;71.60;;;;;;493962;240;1050;-46
2021/08/24 04:45:49;;;;;;;;;;;19.00;71.50;;;;;;494004;240;1186;-46
2021/08/24 04:47:51;;;;;;;;;;;19.00;71.70;;;;;;493847;240;1211;-46
2021/08/24 04:49:52;;;;;;;;;;;19.00;71.70;;;;;;493938;240;1379;-46
2021/08/24 04:51:53;;;;;;;;;;;19.00;71.80;;;;;;493845;240;1094;-46
2021/08/24 04:53:55;;;;;;;;;;;19.00;71.80;;;;;;493803;240;1101;-46
2021/08/24 04:55:56;;;;;;;;;;;18.90;71.80;;;;;;493916;240;1372;-46
2021/08/24 04:57:58;;;;;;;;;;;18.90;71.80;;;;;;493844;240;2136;-46
2021/08/24 04:59:59;;;;;;;;;;;18.90;71.80;;;;;;494046;240;2217;-46
2021/08/24 05:02:00;;;;;;;;;;;18.90;71.70;;;;;;493754;240;1109;-46
2021/08/24 05:04:02;;;;;;;;;;;19.00;71.80;;;;;;494130;240;1059;-46
2021/08/24 05:06:03;;;;;;;;;;;18.90;71.70;;;;;;493842;240;1226;-46
2021/08/24 05:08:04;;;;;;;;;;;18.90;71.80;;;;;;494318;240;1089;-46
2021/08/24 05:10:07;;;;;;;;;;;18.90;71.80;;;;;;494212;240;1056;-46
2021/08/24 05:12:07;;;;;;;;;;;18.90;71.80;;;;;;493775;240;2313;-46
2021/08/24 05:14:08;;;;;;;;;;;18.90;71.80;;;;;;494025;240;1145;-46
2021/08/24 05:16:10;;;;;;;;;;;18.90;71.80;;;;;;493792;240;1017;-46
2021/08/24 05:18:11;;;;;;;;;;;18.90;71.70;;;;;;493818;240;2135;-45
2021/08/24 05:20:12;;;;;;;;;;;18.90;71.70;;;;;;494119;240;1297;-46
2021/08/24 05:22:13;;;;;;;;;;;18.90;71.80;;;;;;493891;240;1257;-46
2021/08/24 05:24:15;;;;;;;;;;;18.90;71.70;;;;;;493715;240;1100;-47
2021/08/24 05:26:16;;;;;;;;;;;18.90;71.70;;;;;;493983;240;1199;-46
2021/08/24 05:28:17;;;;;;;;;;;18.90;71.80;;;;;;493760;240;1102;-46
2021/08/24 05:30:21;;;;;;;;;;;18.90;71.80;;;;;;493922;240;1060;-46
2021/08/24 05:32:21;;;;;;;;;;;18.90;71.80;;;;;;493541;241;2305;-46
2021/08/24 05:34:22;;;;;;;;;;;18.90;71.60;;;;;;493716;240;1078;-46
2021/08/24 05:36:24;;;;;;;;;;;18.90;71.70;;;;;;493749;240;1213;-46
2021/08/24 05:38:25;;;;;;;;;;;18.90;71.80;;;;;;493967;240;2115;-46
2021/08/24 05:40:26;;;;;;;;;;;18.90;71.70;;;;;;493750;240;1297;-46
2021/08/24 05:42:28;;;;;;;;;;;18.90;71.80;;;;;;493724;240;1163;-46
2021/08/24 05:44:29;;;;;;;;;;;18.90;71.70;;;;;;493826;240;1115;-46
2021/08/24 05:46:30;;;;;;;;;;;18.90;71.80;;;;;;493556;240;1606;-46
2021/08/24 05:48:32;;;;;;;;;;;18.90;71.80;;;;;;493609;240;1174;-46
2021/08/24 05:50:33;;;;;;;;;;;18.90;71.80;;;;;;493643;240;1086;-46
2021/08/24 05:52:34;;;;;;;;;;;18.80;71.80;;;;;;493615;240;1219;-46
2021/08/24 05:54:36;;;;;;;;;;;18.80;71.80;;;;;;493905;240;1084;-46
2021/08/24 05:56:37;;;;;;;;;;;18.80;71.80;;;;;;493530;240;2140;-46
2021/08/24 05:58:38;;;;;;;;;;;18.80;71.80;;;;;;493586;240;1109;-46
2021/08/24 06:00:40;;;;;;;;;;;18.80;71.90;;;;;;493617;240;1167;-46
2021/08/24 06:02:41;;;;;;;;;;;18.80;71.80;;;;;;493763;240;1571;-46
2021/08/24 06:04:42;;;;;;;;;;;18.80;71.80;;;;;;493872;240;1094;-46
2021/08/24 06:06:44;;;;;;;;;;;18.80;71.90;;;;;;493603;240;1137;-46
2021/08/24 06:08:45;;;;;;;;;;;18.80;71.80;;;;;;493235;240;1198;-46
2021/08/24 06:10:46;;;;;;;;;;;18.80;71.80;;;;;;493333;240;1062;-46
2021/08/24 06:12:48;;;;;;;;;;;18.80;71.90;;;;;;493196;240;1365;-46
2021/08/24 06:14:49;;;;;;;;;;;18.80;71.80;;;;;;493372;240;1218;-46
2021/08/24 06:16:55;;;;;;;;;;;18.80;71.80;;;;;;493281;240;2182;-46
2021/08/24 06:18:54;;;;;;;;;;;18.80;71.80;;;;;;493208;241;1656;-46
2021/08/24 06:20:55;;;;;;;;;;;18.80;71.80;;;;;;493416;240;1072;-46
2021/08/24 06:22:56;;;;;;;;;;;18.80;71.70;;;;;;493245;240;1300;-46
2021/08/24 06:24:58;;;;;;;;;;;18.80;71.80;;;;;;493303;240;1065;-46
2021/08/24 06:26:59;;;;;;;;;;;18.80;71.80;;;;;;493369;240;1342;-46
2021/08/24 06:29:00;;;;;;;;;;;18.80;71.90;;;;;;493368;240;1191;-46
2021/08/24 06:31:02;;;;;;;;;;;18.80;72.00;;;;;;493357;240;1204;-46
2021/08/24 06:33:03;;;;;;;;;;;18.80;72.00;;;;;;493208;240;1117;-46
2021/08/24 06:35:04;;;;;;;;;;;18.80;71.90;;;;;;493296;240;1035;-46
2021/08/24 06:37:05;;;;;;;;;;;18.80;71.80;;;;;;493222;240;2195;-46
2021/08/24 06:39:07;;;;;;;;;;;18.80;71.90;;;;;;493405;240;1035;-46
2021/08/24 06:41:08;;;;;;;;;;;18.80;71.80;;;;;;493334;240;1260;-46
2021/08/24 06:43:09;;;;;;;;;;;18.80;71.80;;;;;;493260;240;1189;-46
2021/08/24 06:45:11;;;;;;;;;;;18.80;71.90;;;;;;493426;240;1037;-46
2021/08/24 06:47:12;;;;;;;;;;;18.80;71.90;;;;;;493189;240;1145;-46
2021/08/24 06:49:13;;;;;;;;;;;18.80;71.90;;;;;;493157;240;1253;-46
2021/08/24 06:51:15;;;;;;;;;;;18.80;71.90;;;;;;493176;240;1292;-46
2021/08/24 06:53:16;;;;;;;;;;;18.80;71.90;;;;;;492989;240;1063;-46
2021/08/24 06:55:17;;;;;;;;;;;18.80;72.00;;;;;;493262;240;1076;-46
2021/08/24 06:57:19;;;;;;;;;;;18.80;71.90;;;;;;493161;240;2171;-46
2021/08/24 06:59:20;;;;;;;;;;;18.80;71.80;;;;;;493277;240;1200;-46
2021/08/24 07:01:22;;;;;;;;;;;18.80;71.80;;;;;;492994;239;1294;-46
2021/08/24 07:03:23;;;;;;;;;;;18.80;71.80;;;;;;492692;240;1075;-46
2021/08/24 07:05:24;;;;;;;;;;;18.80;71.90;;;;;;493378;240;1061;-46
2021/08/24 07:07:26;;;;;;;;;;;18.80;71.90;;;;;;493015;240;1125;-46
2021/08/24 07:09:27;;;;;;;;;;;18.70;72.00;;;;;;493108;240;1128;-46
2021/08/24 07:11:28;;;;;;;;;;;18.70;71.90;;;;;;493169;240;1304;-46
2021/08/24 07:13:30;;;;;;;;;;;18.70;71.80;;;;;;493141;240;1098;-46
2021/08/24 07:15:33;;;;;;;;;;;18.80;71.90;;;;;;493241;240;1087;-46
2021/08/24 07:17:33;;;;;;;;;;;18.70;71.90;;;;;;493496;240;2172;-46
2021/08/24 07:19:34;;;;;;;;;;;18.70;72.00;;;;;;494055;240;1100;-46
2021/08/24 07:21:35;;;;;;;;;;;18.70;72.00;;;;;;494015;240;1159;-46
2021/08/24 07:23:37;;;;;;;;;;;18.70;71.90;;;;;;493504;240;1152;-46
2021/08/24 07:25:38;;;;;;;;;;;18.70;72.00;;;;;;493966;240;821;-46
2021/08/24 07:27:39;;;;;;;;;;;18.70;71.90;;;;;;493937;240;1143;-46
2021/08/24 07:29:40;;;;;;;;;;;18.70;71.90;;;;;;493515;240;1189;-46
2021/08/24 07:31:42;;;;;;;;;;;18.70;71.90;;;;;;494054;240;879;-46
2021/08/24 07:33:43;;;;;;;;;;;18.70;72.00;;;;;;493603;240;821;-46
2021/08/24 07:35:47;;;;;;;;;;;18.70;72.00;;;;;;493666;240;1377;-46
2021/08/24 07:37:46;;;;;;;;;;;18.70;72.00;;;;;;493435;241;2183;-46
2021/08/24 07:39:47;;;;;;;;;;;18.70;71.90;;;;;;493668;240;858;-46
2021/08/24 07:41:48;;;;;;;;;;;18.70;71.90;;;;;;494057;240;1132;-46
2021/08/24 07:43:50;;;;;;;;;;;18.70;72.00;;;;;;493595;240;1155;-46
2021/08/24 07:45:51;;;;;;;;;;;18.60;72.00;;;;;;494056;240;1134;-46
2021/08/24 07:47:52;;;;;;;;;;;18.70;72.00;;;;;;493963;240;1230;-46
2021/08/24 07:49:54;;;;;;;;;;;18.70;72.00;;;;;;493583;240;933;-46
2021/08/24 07:51:55;;;;;;;;;;;18.80;71.80;;;;;;493993;240;1100;-46
2021/08/24 07:53:56;;;;;;;;;;;18.70;72.00;;;;;;493630;240;1103;-46
2021/08/24 07:55:58;;;;;;;;;;;18.70;72.00;;;;;;494016;240;1066;-40
2021/08/24 07:57:59;;;;;;;;;;;18.70;72.30;;;;;;493509;240;2243;-40
2021/08/24 08:00:00;;;;;;;;;;;19.20;70.70;;;;;;493679;240;1157;-40
2021/08/24 08:02:02;;;;;;;;;;;19.60;69.30;;;;;;493917;240;1338;-40
2021/08/24 08:04:03;;;;;;;;;;;19.80;68.10;;;;;;493283;240;1085;-40
2021/08/24 08:06:05;;;;;;;;;;;20.00;67.30;;;;;;493205;240;1370;-41
2021/08/24 08:08:06;;;;;;;;;;;20.20;66.80;;;;;;493418;240;2321;-41
2021/08/24 08:10:07;;;;;;;;;;;20.30;66.30;;;;;;494028;240;861;-41
2021/08/24 08:12:08;;;;;;;;;;;20.40;65.90;;;;;;494105;240;1182;-40
2021/08/24 08:14:11;;;;;;;;;;;20.50;65.60;;;;;;493653;240;1030;-41
2021/08/24 08:16:11;;;;;;;;;;;20.60;65.40;;;;;;493967;240;2079;-41
2021/08/24 08:18:12;;;;;;;;;;;20.60;65.20;;;;;;493966;240;2191;-41
2021/08/24 08:20:13;;;;;;;;;;;20.70;65.00;;;;;;493523;240;1057;-41
2021/08/24 08:22:15;;;;;;;;;;;20.80;64.90;;;;;;494023;240;1129;-41
2021/08/24 08:24:16;;;;;;;;;;;20.80;64.70;;;;;;493620;240;1155;-41
2021/08/24 08:26:18;;;;;;;;;;;20.80;64.50;;;;;;494006;240;1083;-41
2021/08/24 08:28:19;;;;;;;;;;;20.90;64.30;;;;;;493929;240;1139;-41
2021/08/24 08:30:20;;;;;;;;;;;20.90;64.20;;;;;;493593;240;1114;-41
2021/08/24 08:32:21;;;;;;;;;;;21.00;64.10;;;;;;493488;240;1067;-41
2021/08/24 08:34:23;;;;;;;;;;;21.00;64.00;;;;;;494044;240;831;-41
2021/08/24 08:36:24;;;;;;;;;;;21.10;63.80;;;;;;493474;240;1202;-41
2021/08/24 08:38:25;;;;;;;;;;;21.10;63.70;;;;;;493394;241;2198;-41
2021/08/24 08:40:27;;;;;;;;;;;21.10;63.60;;;;;;493720;240;1137;-41
2021/08/24 08:42:28;;;;;;;;;;;21.10;63.50;;;;;;493971;240;1030;-41
2021/08/24 08:44:29;;;;;;;;;;;21.20;63.40;;;;;;493864;240;1101;-41
2021/08/24 08:46:31;;;;;;;;;;;21.20;63.30;;;;;;494024;240;1232;-41
2021/08/24 08:48:32;;;;;;;;;;;21.30;63.30;;;;;;494095;240;969;-41
2021/08/24 08:50:33;;;;;;;;;;;21.30;63.20;;;;;;494081;240;1406;-41
2021/08/24 08:52:34;;;;;;;;;;;21.30;63.10;;;;;;493490;240;1172;-41
2021/08/24 08:54:36;;;;;;;;;;;21.40;63.10;;;;;;493578;240;829;-41
2021/08/24 08:56:37;;;;;;;;;;;21.40;63.00;;;;;;493549;240;1147;-41
2021/08/24 08:58:38;;;;;;;;;;;21.40;62.90;;;;;;494102;240;2198;-41
2021/08/24 09:00:40;;;;;;;;;;;21.40;62.90;;;;;;493655;240;1118;-41
2021/08/24 09:02:41;;;;;;;;;;;21.40;62.70;;;;;;493212;240;1184;-42
2021/08/24 09:04:42;;;;;;;;;;;21.50;62.70;;;;;;493485;240;877;-41
2021/08/24 09:06:44;;;;;;;;;;;21.50;62.60;;;;;;493846;240;1371;-41
2021/08/24 09:08:45;;;;;;;;;;;21.50;62.60;;;;;;493893;240;866;-41
2021/08/24 09:10:46;;;;;;;;;;;21.50;62.50;;;;;;493917;240;875;-42
2021/08/24 09:12:48;;;;;;;;;;;21.60;62.60;;;;;;493499;240;1005;-42
2021/08/24 09:14:49;;;;;;;;;;;21.60;62.50;;;;;;493382;240;1110;-42
2021/08/24 09:16:50;;;;;;;;;;;21.60;62.40;;;;;;493918;240;1188;-42
2021/08/24 09:18:52;;;;;;;;;;;21.60;62.40;;;;;;492918;240;2176;-42
2021/08/24 09:20:53;;;;;;;;;;;21.60;62.30;;;;;;493577;240;1042;-42
2021/08/24 09:22:54;;;;;;;;;;;21.70;62.30;;;;;;493976;240;1169;-42
2021/08/24 09:24:55;;;;;;;;;;;21.70;62.30;;;;;;494063;240;866;-42
2021/08/24 09:26:57;;;;;;;;;;;21.70;62.20;;;;;;493478;240;1112;-42
2021/08/24 09:28:58;;;;;;;;;;;21.70;62.20;;;;;;494060;240;1271;-42
2021/08/24 09:30:59;;;;;;;;;;;21.70;62.20;;;;;;493648;240;1121;-42
2021/08/24 09:33:01;;;;;;;;;;;21.70;62.10;;;;;;494027;240;1227;-42
2021/08/24 09:35:02;;;;;;;;;;;21.70;62.10;;;;;;493933;240;1064;-42
2021/08/24 09:37:03;;;;;;;;;;;21.80;62.10;;;;;;493462;240;1186;-42
2021/08/24 09:39:05;;;;;;;;;;;21.80;62.10;;;;;;493249;240;2175;-42
2021/08/24 09:41:06;;;;;;;;;;;21.80;62.10;;;;;;493164;240;1181;-42
2021/08/24 09:43:07;;;;;;;;;;;21.80;62.00;;;;;;493365;240;1153;-42
2021/08/24 09:45:09;;;;;;;;;;;21.80;61.90;;;;;;493359;240;1252;-42
2021/08/24 09:47:10;;;;;;;;;;;21.80;61.90;;;;;;493247;240;1338;-42
2021/08/24 09:49:11;;;;;;;;;;;21.90;61.90;;;;;;493366;240;1085;-42
2021/08/24 09:51:13;;;;;;;;;;;21.90;61.90;;;;;;493393;240;1137;-42
2021/08/24 09:53:14;;;;;;;;;;;21.90;61.80;;;;;;493175;240;1081;-42
2021/08/24 09:55:16;;;;;;;;;;;21.90;61.90;;;;;;493195;240;1118;-42
2021/08/24 09:57:18;;;;;;;;;;;21.90;61.80;;;;;;493010;240;1198;-42
2021/08/24 09:59:19;;;;;;;;;;;21.90;61.80;;;;;;493626;240;2198;-42
2021/08/24 10:01:20;;;;;;;;;;;22.00;61.80;;;;;;493595;240;1178;-42
2021/08/24 10:03:22;;;;;;;;;;;22.00;61.80;;;;;;493392;240;1138;-42
2021/08/24 10:05:23;;;;;;;;;;;22.00;61.70;;;;;;493457;240;1087;-42
2021/08/24 10:07:24;;;;;;;;;;;22.00;61.70;;;;;;493267;240;1211;-42
2021/08/24 10:09:26;;;;;;;;;;;22.00;61.70;;;;;;493295;240;1061;-42
2021/08/24 10:11:27;;;;;;;;;;;22.00;61.70;;;;;;493241;240;1344;-42
2021/08/24 10:13:28;;;;;;;;;;;22.00;61.70;;;;;;493242;240;1228;-42
2021/08/24 10:15:30;;;;;;;;;;;22.00;61.60;;;;;;493317;240;1163;-42
2021/08/24 10:17:31;;;;;;;;;;;22.00;61.60;;;;;;493393;240;1245;-42
2021/08/24 10:19:32;;;;;;;;;;;22.10;61.60;;;;;;493242;240;2135;-42
2021/08/24 10:21:34;;;;;;;;;;;22.10;61.50;;;;;;493144;240;1265;-43
2021/08/24 10:23:37;;;;;;;;;;;22.10;61.50;;;;;;493690;240;1131;-43
2021/08/24 10:25:36;;;;;;;;;;;22.10;61.50;;;;;;494107;241;2149;-42
2021/08/24 10:27:38;;;;;;;;;;;22.10;61.50;;;;;;494150;240;1091;-43
2021/08/24 10:29:39;;;;;;;;;;;22.10;61.50;;;;;;494117;240;834;-43
2021/08/24 10:31:40;;;;;;;;;;;22.10;61.50;;;;;;493679;240;1101;-43
2021/08/24 10:33:41;;;;;;;;;;;22.10;61.40;;;;;;493866;240;1012;-43
2021/08/24 10:35:43;;;;;;;;;;;22.10;61.40;;;;;;493899;240;1143;-43
2021/08/24 10:37:44;;;;;;;;;;;22.10;61.40;;;;;;493772;240;1097;-43
2021/08/24 10:39:45;;;;;;;;;;;22.10;61.30;;;;;;493404;240;2187;-43
2021/08/24 10:41:47;;;;;;;;;;;22.20;61.40;;;;;;493326;240;1308;-43
2021/08/24 10:43:48;;;;;;;;;;;22.20;61.40;;;;;;493882;240;878;-43
2021/08/24 10:45:49;;;;;;;;;;;22.20;61.40;;;;;;493474;240;1225;-43
2021/08/24 10:47:51;;;;;;;;;;;22.20;61.40;;;;;;493902;240;1062;-43
2021/08/24 10:49:52;;;;;;;;;;;22.20;61.40;;;;;;493962;240;829;-43
2021/08/24 10:51:53;;;;;;;;;;;22.20;61.40;;;;;;493497;240;1137;-43
2021/08/24 10:53:55;;;;;;;;;;;22.20;61.30;;;;;;493573;240;1114;-43
2021/08/24 10:55:56;;;;;;;;;;;22.20;61.30;;;;;;493569;240;1094;-43
2021/08/24 10:57:58;;;;;;;;;;;22.20;61.30;;;;;;493574;240;1013;-43
2021/08/24 10:59:59;;;;;;;;;;;22.20;61.20;;;;;;493588;240;2199;-43
2021/08/24 11:02:02;;;;;;;;;;;22.30;61.30;;;;;;493595;240;1118;-43
2021/08/24 11:04:01;;;;;;;;;;;22.30;61.20;;;;;;493879;241;2033;-43
2021/08/24 11:06:02;;;;;;;;;;;22.30;61.30;;;;;;493535;240;1063;-43
2021/08/24 11:08:04;;;;;;;;;;;22.30;61.30;;;;;;493845;240;817;-43
2021/08/24 11:10:05;;;;;;;;;;;22.30;61.20;;;;;;493905;240;899;-43
2021/08/24 11:12:06;;;;;;;;;;;22.30;61.20;;;;;;493470;240;1120;-43
2021/08/24 11:14:08;;;;;;;;;;;22.30;61.30;;;;;;494058;240;868;-43
2021/08/24 11:16:09;;;;;;;;;;;22.30;61.20;;;;;;493491;240;1106;-43
2021/08/24 11:18:10;;;;;;;;;;;22.30;61.10;;;;;;493936;240;814;-43
2021/08/24 11:20:12;;;;;;;;;;;22.30;61.10;;;;;;493932;240;2171;-43
2021/08/24 11:22:13;;;;;;;;;;;22.40;61.20;;;;;;493965;240;1125;-43
2021/08/24 11:24:14;;;;;;;;;;;22.40;61.20;;;;;;493607;240;1042;-43
2021/08/24 11:26:16;;;;;;;;;;;22.40;61.20;;;;;;493975;240;1247;-43
2021/08/24 11:28:17;;;;;;;;;;;22.40;61.20;;;;;;493947;240;1161;-43
2021/08/24 11:30:18;;;;;;;;;;;22.40;61.10;;;;;;493957;240;935;-43
2021/08/24 11:32:20;;;;;;;;;;;22.40;61.10;;;;;;493550;240;1109;-43
2021/08/24 11:34:21;;;;;;;;;;;22.40;61.10;;;;;;492889;240;1057;-43
2021/08/24 11:36:22;;;;;;;;;;;22.40;61.10;;;;;;493477;240;1131;-43
2021/08/24 11:38:23;;;;;;;;;;;22.40;61.10;;;;;;493375;240;1115;-43
2021/08/24 11:40:25;;;;;;;;;;;22.40;61.10;;;;;;493868;240;2187;-43
2021/08/24 11:42:26;;;;;;;;;;;22.40;61.10;;;;;;493453;240;1121;-43
2021/08/24 11:44:27;;;;;;;;;;;22.50;61.10;;;;;;493547;240;818;-43
2021/08/24 11:46:29;;;;;;;;;;;22.40;61.10;;;;;;493382;240;1137;-43
2021/08/24 11:48:30;;;;;;;;;;;22.40;61.00;;;;;;493462;240;1113;-43
2021/08/24 11:50:32;;;;;;;;;;;22.50;61.10;;;;;;493988;240;859;-43
2021/08/24 11:52:33;;;;;;;;;;;22.50;61.10;;;;;;493884;240;1067;-44
2021/08/24 11:54:34;;;;;;;;;;;22.50;61.00;;;;;;493555;240;872;-43
2021/08/24 11:56:36;;;;;;;;;;;22.50;61.00;;;;;;493969;240;1078;-43